This is the latest recevied weather packets stored in our database for station/object EA4BCR. If no packets are shown the sender has not sent any weather packets the latest 10 day(s).
| Time | Temp. | Humidity | Pressure | Rain* | Wind** | Luminosity | Snow |
|---|---|---|---|---|---|---|---|
| 1787847015 | 23.33° C | 36% | 1012.5 hPa | - | - | - | - |
| 1787846415 | 24.44° C | 34% | 1012 hPa | - | - | - | - |
| 1787845815 | 23.89° C | 37% | 1012.3 hPa | - | - | - | - |
| 1787845215 | 23.89° C | 35% | 1012.1 hPa | - | - | - | - |
| 1787844615 | 24.44° C | 36% | 1011.9 hPa | - | - | - | - |
| 1787844015 | 24.44° C | 35% | 1011.7 hPa | - | - | - | - |
| 1787843415 | 25° C | 35% | 1011.6 hPa | - | - | - | - |
| 1787842814 | 25° C | 35% | 1011.5 hPa | - | - | - | - |
| 1787842215 | 25° C | 35% | 1011.4 hPa | - | - | - | - |
| 1787841614 | 24.44° C | 38% | 1011.6 hPa | - | - | - | - |
| 1787841014 | 25° C | 37% | 1011.2 hPa | - | - | - | - |
| 1787840414 | 25° C | 37% | 1011.5 hPa | - | - | - | - |
| 1787839815 | 25.56° C | 38% | 1011 hPa | - | - | - | - |
| 1787839215 | 25° C | 38% | 1011 hPa | - | - | - | - |
| 1787838614 | 25° C | 41% | 1011.3 hPa | - | - | - | - |
| 1787838014 | 24.44° C | 41% | 1011.4 hPa | - | - | - | - |
| 1787837414 | 25.56° C | 40% | 1011 hPa | - | - | - | - |
| 1787836814 | 25.56° C | 40% | 1010.8 hPa | - | - | - | - |
| 1787836215 | 26.11° C | 40% | 1010.8 hPa | - | - | - | - |
| 1787835614 | 25.56° C | 40% | 1010.9 hPa | - | - | - | - |
| 1787835014 | 25° C | 40% | 1011.1 hPa | - | - | - | - |
| 1787834414 | 24.44° C | 42% | 1011.3 hPa | - | - | - | - |
| 1787833814 | 25° C | 40% | 1011 hPa | - | - | - | - |
| 1787833214 | 25° C | 40% | 1011.1 hPa | - | - | - | - |
| 1787832614 | 25° C | 42% | 1011.2 hPa | - | - | - | - |
* Rain since midnight (hover to see other rain measurements)
** Current wind speed in m/s (hover to see current wind gust speed)